createdAt,value
2022-10-16T00:03:36.380Z,13025
2022-10-16T00:08:48.283Z,13037
2022-10-16T00:14:00.350Z,13028
2022-10-16T00:19:12.228Z,13020
2022-10-16T00:24:24.171Z,13050
2022-10-16T00:29:36.118Z,13063
2022-10-16T00:34:48.028Z,13000
2022-10-16T00:39:59.853Z,13014
2022-10-16T00:45:12.018Z,13038
2022-10-16T00:50:23.897Z,13051
2022-10-16T00:55:41.776Z,13021
2022-10-16T01:00:58.434Z,13068
2022-10-16T01:06:10.491Z,13079
2022-10-16T01:11:22.902Z,13009
2022-10-16T01:16:34.663Z,13049
2022-10-16T01:21:46.542Z,13080
2022-10-16T01:26:58.415Z,13044
2022-10-16T01:32:10.325Z,13069
2022-10-16T01:37:22.045Z,13055
2022-10-16T01:42:33.994Z,13023
2022-10-16T01:47:45.771Z,12990
2022-10-16T01:52:57.633Z,13065
2022-10-16T01:58:09.288Z,13029
2022-10-16T02:03:21.064Z,12990
2022-10-16T02:08:32.892Z,13113
2022-10-16T02:13:44.675Z,13100
2022-10-16T02:18:56.406Z,13053
2022-10-16T02:24:08.299Z,13052
2022-10-16T02:29:20.694Z,13083
2022-10-16T02:34:32.405Z,13062
2022-10-16T02:39:44.165Z,13071
2022-10-16T02:44:56.100Z,12973
2022-10-16T02:50:07.876Z,13128
2022-10-16T02:55:19.598Z,13079
2022-10-16T03:00:31.424Z,13054
2022-10-16T03:05:43.092Z,13049
2022-10-16T03:10:55.192Z,13021
2022-10-16T03:16:07.001Z,12974
2022-10-16T03:21:19.055Z,13091
2022-10-16T03:26:30.763Z,13092
2022-10-16T03:31:42.720Z,13069
2022-10-16T03:36:54.614Z,13052
2022-10-16T03:42:06.463Z,13093
2022-10-16T03:47:18.450Z,13099
2022-10-16T03:52:30.198Z,13096
2022-10-16T03:57:41.947Z,13069
2022-10-16T04:02:53.634Z,13041
2022-10-16T04:08:05.489Z,13041
2022-10-16T04:13:17.480Z,13106
2022-10-16T04:18:31.486Z,13084
2022-10-16T04:23:43.491Z,13075
2022-10-16T04:28:55.637Z,13094
2022-10-16T04:34:07.725Z,13067
2022-10-16T04:39:19.711Z,13045
2022-10-16T04:44:31.742Z,13012
2022-10-16T04:49:43.856Z,13092
2022-10-16T04:54:55.805Z,13058
2022-10-16T05:00:07.682Z,13067
2022-10-16T05:05:19.582Z,13059
2022-10-16T05:10:31.589Z,12978
2022-10-16T05:15:43.536Z,13003
2022-10-16T05:20:55.470Z,13031
2022-10-16T05:26:07.334Z,13087
2022-10-16T05:31:19.319Z,13096
2022-10-16T05:36:31.138Z,13070
2022-10-16T05:41:43.064Z,13059
2022-10-16T05:46:55.001Z,13082
2022-10-16T05:52:07.090Z,13112
2022-10-16T05:57:19.002Z,13018
2022-10-16T06:02:31.043Z,13124
2022-10-16T06:07:42.873Z,13098
2022-10-16T06:12:55.028Z,13133
2022-10-16T06:18:07.151Z,13021
2022-10-16T06:23:19.163Z,13129
2022-10-16T06:28:31.596Z,13148
2022-10-16T06:33:44.170Z,13109
2022-10-16T06:38:56.496Z,13108
2022-10-16T06:44:08.680Z,13158
2022-10-16T06:49:20.818Z,13136
2022-10-16T06:54:42.707Z,13127
2022-10-16T06:59:55.658Z,13196
2022-10-16T07:05:06.997Z,13169
2022-10-16T07:10:19.320Z,13192
2022-10-16T07:15:31.628Z,13206
2022-10-16T07:20:44.054Z,13204
2022-10-16T07:25:56.465Z,13205
2022-10-16T07:31:08.728Z,13164
2022-10-16T07:36:21.027Z,13242
2022-10-16T07:41:33.505Z,13200
2022-10-16T07:46:45.729Z,13173
2022-10-16T07:51:57.628Z,13189
2022-10-16T07:57:09.940Z,13219
2022-10-16T08:02:22.101Z,13213
2022-10-16T08:07:34.204Z,13194
2022-10-16T08:12:46.610Z,13147
2022-10-16T08:17:58.866Z,13124
2022-10-16T08:23:11.007Z,13199
2022-10-16T08:28:23.310Z,13169
2022-10-16T08:33:35.666Z,13164
2022-10-16T08:38:47.708Z,13086
2022-10-16T08:44:00.000Z,13228
2022-10-16T08:49:12.131Z,13168
2022-10-16T08:54:24.196Z,13169
2022-10-16T08:59:36.133Z,13181
2022-10-16T09:04:57.006Z,13194
2022-10-16T09:10:06.846Z,13217
2022-10-16T09:15:19.139Z,13110
2022-10-16T09:20:31.385Z,13252
2022-10-16T09:25:43.692Z,13240
2022-10-16T09:30:56.011Z,13230
2022-10-16T09:36:08.197Z,13151
2022-10-16T09:41:20.226Z,13175
2022-10-16T09:46:32.563Z,13157
2022-10-16T09:51:44.907Z,13101
2022-10-16T09:56:57.195Z,13242
2022-10-16T10:02:09.421Z,13180
2022-10-16T10:07:21.922Z,13164
2022-10-16T10:12:35.114Z,13122
2022-10-16T10:17:47.319Z,13194
2022-10-16T10:22:59.637Z,13178
2022-10-16T10:28:12.016Z,13238
2022-10-16T10:33:24.374Z,13114
2022-10-16T10:38:36.806Z,13062
2022-10-16T10:43:49.328Z,13156
2022-10-16T10:49:02.679Z,13190
2022-10-16T10:54:14.956Z,13233
2022-10-16T10:59:27.366Z,13270
2022-10-16T11:04:39.890Z,13248
2022-10-16T11:09:53.387Z,14161
2022-10-16T11:15:07.953Z,13629
2022-10-16T11:20:21.516Z,13859
2022-10-16T11:25:35.094Z,13668
2022-10-16T11:30:48.011Z,13045
2022-10-16T11:36:00.670Z,13146
2022-10-16T11:41:12.987Z,13522
2022-10-16T11:51:35.503Z,13181
2022-10-16T11:56:47.909Z,13152
2022-10-16T12:02:00.803Z,12917
2022-10-16T12:07:13.495Z,13014
2022-10-16T12:22:46.582Z,13293
2022-10-16T12:27:59.053Z,13517
2022-10-16T12:33:11.995Z,13476
2022-10-16T12:38:25.177Z,13060
2022-10-16T12:43:37.868Z,13388
2022-10-16T12:49:08.247Z,13298
2022-10-16T12:54:17.794Z,12985
2022-10-16T12:59:30.924Z,13113
2022-10-16T13:04:43.775Z,13103
2022-10-16T13:30:36.478Z,13034
2022-10-16T13:40:58.633Z,12915
2022-10-16T13:56:30.523Z,12944
2022-10-16T14:01:42.940Z,13003
2022-10-16T14:06:55.324Z,12999
2022-10-16T14:17:17.837Z,12899
2022-10-16T14:22:30.593Z,13166
2022-10-16T14:27:42.754Z,13206
2022-10-16T14:32:55.051Z,13105
2022-10-16T14:38:07.492Z,13102
2022-10-16T14:43:19.634Z,13105
2022-10-16T14:48:32.019Z,13110
2022-10-16T14:53:44.154Z,13170
2022-10-16T14:58:56.471Z,12989
2022-10-16T15:04:08.916Z,13019
2022-10-16T15:09:21.552Z,12999
2022-10-16T15:14:33.515Z,13032
2022-10-16T15:19:45.557Z,12932
2022-10-16T15:24:57.574Z,13046
2022-10-16T15:30:09.754Z,13041
2022-10-16T15:35:21.928Z,12956
2022-10-16T15:40:33.936Z,12999
2022-10-16T15:45:46.128Z,12993
2022-10-16T15:50:58.322Z,12993
2022-10-16T15:56:10.482Z,12888
2022-10-16T16:01:22.957Z,13046
2022-10-16T16:06:35.384Z,13014
2022-10-16T16:11:47.976Z,13029
2022-10-16T16:16:59.745Z,13014
2022-10-16T16:22:13.659Z,12970
2022-10-16T16:27:25.931Z,12900
2022-10-16T16:32:39.181Z,13039
2022-10-16T16:37:51.223Z,13016
2022-10-16T16:43:03.185Z,13069
2022-10-16T16:48:15.371Z,13035
2022-10-16T16:53:27.705Z,13102
2022-10-16T16:58:39.810Z,12995
2022-10-16T17:03:52.001Z,13004
2022-10-16T17:09:04.311Z,13030
2022-10-16T17:14:16.214Z,12989
2022-10-16T17:19:28.079Z,13029
2022-10-16T17:24:40.347Z,13039
2022-10-16T17:29:52.357Z,13039
2022-10-16T17:35:04.224Z,13049
2022-10-16T17:40:16.182Z,12971
2022-10-16T17:45:28.434Z,13076
2022-10-16T17:50:40.308Z,13001
2022-10-16T17:55:52.429Z,12987
2022-10-16T18:01:04.348Z,13049
2022-10-16T18:06:23.351Z,13030
2022-10-16T18:11:37.394Z,13031
2022-10-16T18:22:04.330Z,12991
2022-10-16T18:27:15.729Z,13018
2022-10-16T18:32:27.560Z,13040
2022-10-16T18:37:39.753Z,13023
2022-10-16T18:42:56.649Z,13052
2022-10-16T18:48:08.191Z,13051
2022-10-16T18:53:39.435Z,13080
2022-10-16T18:58:47.813Z,12979
2022-10-16T19:03:59.946Z,13102
2022-10-16T19:09:14.629Z,12954
2022-10-16T19:14:33.097Z,13116
2022-10-16T19:19:48.721Z,13090
2022-10-16T19:25:00.740Z,13065
2022-10-16T19:35:24.676Z,13148
2022-10-16T19:40:36.480Z,13084
2022-10-16T19:45:56.265Z,13036
2022-10-16T19:51:08.485Z,13072
2022-10-16T19:56:20.523Z,12954
2022-10-16T20:01:32.784Z,13105
2022-10-16T20:06:45.407Z,12991
2022-10-16T20:11:57.843Z,13181
2022-10-16T20:17:10.022Z,13096
2022-10-16T20:22:22.239Z,13095
2022-10-16T20:27:34.495Z,13068
2022-10-16T20:32:46.486Z,13101
2022-10-16T20:37:58.624Z,13047
2022-10-16T20:43:11.477Z,13060
2022-10-16T20:48:23.368Z,12996
2022-10-16T20:53:39.686Z,13072
2022-10-16T20:58:52.674Z,13034
2022-10-16T21:04:04.620Z,13014
2022-10-16T21:09:16.497Z,13061
2022-10-16T21:14:28.524Z,13067
2022-10-16T21:19:40.460Z,13082
2022-10-16T21:24:52.388Z,13065
2022-10-16T21:30:04.473Z,13006
2022-10-16T21:35:16.531Z,13118
2022-10-16T21:40:28.570Z,13070
2022-10-16T21:45:40.520Z,13054
2022-10-16T21:50:52.517Z,13051
2022-10-16T21:56:04.464Z,12974
2022-10-16T22:01:27.286Z,13158
2022-10-16T22:06:37.764Z,13068
2022-10-16T22:11:49.829Z,13064
2022-10-16T22:17:01.709Z,13076
2022-10-16T22:22:13.775Z,13056
2022-10-16T22:27:35.173Z,13038
2022-10-16T22:32:47.326Z,12914
2022-10-16T22:37:59.176Z,13099
2022-10-16T22:43:11.172Z,13096
2022-10-16T22:48:23.302Z,13079
2022-10-16T22:53:35.300Z,13051
2022-10-16T22:58:47.366Z,12946
2022-10-16T23:03:59.335Z,13098
2022-10-16T23:09:11.099Z,13090
2022-10-16T23:14:23.114Z,13070
2022-10-16T23:19:35.036Z,12988
2022-10-16T23:24:46.880Z,13089
2022-10-16T23:29:58.694Z,12996
2022-10-16T23:35:10.635Z,13117
2022-10-16T23:40:22.630Z,13009
2022-10-16T23:45:34.525Z,13116
2022-10-16T23:50:46.184Z,12948
2022-10-16T23:55:58.278Z,13103
